createdAt,value
2023-05-06T00:01:16.024Z,2.30
2023-05-06T00:03:48.827Z,5.03
2023-05-06T00:06:19.034Z,3.22
2023-05-06T00:08:49.610Z,2.88
2023-05-06T00:11:19.651Z,2.78
2023-05-06T00:13:49.730Z,2.20
2023-05-06T00:16:21.868Z,2.33
2023-05-06T00:18:54.419Z,2.33
2023-05-06T00:21:27.363Z,2.55
2023-05-06T00:23:57.510Z,1.85
2023-05-06T00:26:27.512Z,2.08
2023-05-06T00:28:57.593Z,1.65
2023-05-06T00:31:27.684Z,1.83
2023-05-06T00:34:00.631Z,3.13
2023-05-06T00:36:30.619Z,2.35
2023-05-06T00:39:00.964Z,2.10
2023-05-06T00:41:36.814Z,1.92
2023-05-06T00:44:06.993Z,1.98
2023-05-06T00:46:37.558Z,1.58
2023-05-06T00:49:10.129Z,1.50
2023-05-06T00:51:40.422Z,2.15
2023-05-06T00:54:13.294Z,1.50
2023-05-06T00:56:47.058Z,1.88
2023-05-06T00:59:17.635Z,1.30
2023-05-06T01:01:49.628Z,2.10
2023-05-06T01:04:22.734Z,1.38
2023-05-06T01:07:04.485Z,1.17
2023-05-06T01:09:50.406Z,1.65
2023-05-06T01:12:27.538Z,1.77
2023-05-06T01:15:08.834Z,1.52
2023-05-06T01:17:46.756Z,2.10
2023-05-06T01:20:21.583Z,1.13
2023-05-06T01:22:53.131Z,1.75
2023-05-06T01:25:30.348Z,1.50
2023-05-06T01:28:11.955Z,2.35
2023-05-06T01:31:01.314Z,1.70
2023-05-06T01:33:40.033Z,1.65
2023-05-06T01:36:18.880Z,1.50
2023-05-06T01:38:55.654Z,1.42
2023-05-06T01:41:29.823Z,1.42
2023-05-06T01:46:33.420Z,2.30
2023-05-06T01:49:08.300Z,1.63
2023-05-06T01:51:38.397Z,2.60
2023-05-06T01:54:09.499Z,1.15
2023-05-06T01:56:46.723Z,2.42
2023-05-06T01:59:18.312Z,1.50
2023-05-06T02:01:48.414Z,1.65
2023-05-06T02:04:18.545Z,2.25
2023-05-06T02:06:48.768Z,1.40
2023-05-06T02:09:20.785Z,1.80
2023-05-06T02:11:59.714Z,1.85
2023-05-06T02:14:32.038Z,2.63
2023-05-06T02:17:06.597Z,2.53
2023-05-06T02:19:39.564Z,2.05
2023-05-06T02:22:12.101Z,2.35
2023-05-06T02:24:53.060Z,1.75
2023-05-06T02:27:25.894Z,1.92
2023-05-06T02:29:59.696Z,1.33
2023-05-06T02:32:32.541Z,1.23
2023-05-06T02:35:03.210Z,1.00
2023-05-06T02:37:33.464Z,0.93
2023-05-06T02:40:07.877Z,0.90
2023-05-06T02:42:40.547Z,1.05
2023-05-06T02:45:12.205Z,0.90
2023-05-06T02:47:42.518Z,1.00
2023-05-06T02:50:14.175Z,1.13
2023-05-06T02:52:46.834Z,0.75
2023-05-06T02:55:21.406Z,1.45
2023-05-06T02:57:53.960Z,1.52
2023-05-06T03:00:24.287Z,1.30
2023-05-06T03:02:55.132Z,1.15
2023-05-06T03:05:26.842Z,0.70
2023-05-06T03:07:57.193Z,1.25
2023-05-06T03:10:33.052Z,1.00
2023-05-06T03:13:06.755Z,1.42
2023-05-06T03:15:36.890Z,0.98
2023-05-06T03:18:08.870Z,1.40
2023-05-06T03:20:46.531Z,1.40
2023-05-06T03:23:16.531Z,0.93
2023-05-06T03:25:46.849Z,1.25
2023-05-06T03:28:21.306Z,0.80
2023-05-06T03:30:52.771Z,0.98
2023-05-06T03:33:30.108Z,0.80
2023-05-06T03:36:00.285Z,1.10
2023-05-06T03:38:33.008Z,0.80
2023-05-06T03:41:06.194Z,0.88
2023-05-06T03:43:45.964Z,0.85
2023-05-06T03:46:17.121Z,1.00
2023-05-06T03:48:47.722Z,1.20
2023-05-06T03:51:20.927Z,0.88
2023-05-06T03:53:52.987Z,1.40
2023-05-06T03:56:25.685Z,1.02
2023-05-06T03:59:03.863Z,1.40
2023-05-06T04:01:37.807Z,1.40
2023-05-06T04:04:09.507Z,1.42
2023-05-06T04:06:42.094Z,1.33
2023-05-06T04:09:13.302Z,1.23
2023-05-06T04:11:43.756Z,1.10
2023-05-06T04:14:19.577Z,1.00
2023-05-06T04:16:50.035Z,1.63
2023-05-06T04:19:20.214Z,1.55
2023-05-06T04:21:50.788Z,1.02
2023-05-06T04:24:21.812Z,1.40
2023-05-06T04:26:55.782Z,1.65
2023-05-06T04:29:29.545Z,1.13
2023-05-06T04:32:11.894Z,1.30
2023-05-06T04:34:47.511Z,1.58
2023-05-06T04:37:19.179Z,1.42
2023-05-06T04:39:53.159Z,1.33
2023-05-06T04:42:23.536Z,3.95
2023-05-06T04:45:08.367Z,2.03
2023-05-06T04:47:40.626Z,1.50
2023-05-06T04:50:13.816Z,2.45
2023-05-06T04:52:45.213Z,1.65
2023-05-06T04:55:17.880Z,1.50
2023-05-06T04:57:51.822Z,1.35
2023-05-06T05:00:26.614Z,1.85
2023-05-06T05:02:57.160Z,1.88
2023-05-06T05:05:30.112Z,1.33
2023-05-06T05:08:01.040Z,2.15
2023-05-06T05:10:33.557Z,1.95
2023-05-06T05:13:03.833Z,2.85
2023-05-06T05:15:36.750Z,2.10
2023-05-06T05:18:06.963Z,2.40
2023-05-06T05:20:38.026Z,1.67
2023-05-06T05:23:11.915Z,1.63
2023-05-06T05:25:43.616Z,1.40
2023-05-06T05:28:14.074Z,1.50
2023-05-06T05:30:54.516Z,1.00
2023-05-06T05:33:25.172Z,1.38
2023-05-06T05:36:04.918Z,0.90
2023-05-06T05:38:39.029Z,1.90
2023-05-06T05:41:09.394Z,3.35
2023-05-06T05:43:39.812Z,1.70
2023-05-06T05:46:12.615Z,1.08
2023-05-06T05:48:46.940Z,1.90
2023-05-06T05:53:48.188Z,2.33
2023-05-06T05:56:19.754Z,2.22
2023-05-06T05:58:50.878Z,1.85
2023-05-06T06:01:24.620Z,1.60
2023-05-06T06:03:56.177Z,1.38
2023-05-06T06:06:26.558Z,1.05
2023-05-06T06:08:56.696Z,1.90
2023-05-06T06:11:29.415Z,1.92
2023-05-06T06:14:00.211Z,1.50
2023-05-06T06:16:33.189Z,1.65
2023-05-06T06:19:03.434Z,1.55
2023-05-06T06:21:34.046Z,1.58
2023-05-06T06:24:07.182Z,1.45
2023-05-06T06:26:41.345Z,1.98
2023-05-06T06:29:11.533Z,1.83
2023-05-06T06:31:44.282Z,2.00
2023-05-06T06:34:14.445Z,2.65
2023-05-06T06:36:46.001Z,1.40
2023-05-06T06:39:16.588Z,1.95
2023-05-06T06:41:48.812Z,1.45
2023-05-06T06:44:22.034Z,2.13
2023-05-06T06:46:54.544Z,1.23
2023-05-06T06:49:24.922Z,1.80
2023-05-06T06:51:56.901Z,2.30
2023-05-06T06:54:33.641Z,2.22
2023-05-06T06:57:04.165Z,2.90
2023-05-06T06:59:36.732Z,2.35
2023-05-06T07:02:09.889Z,3.55
2023-05-06T07:04:41.134Z,2.13
2023-05-06T07:07:11.221Z,2.10
2023-05-06T07:09:41.788Z,2.15
2023-05-06T07:12:12.357Z,3.05
2023-05-06T07:14:44.906Z,2.22
2023-05-06T07:17:17.614Z,2.00
2023-05-06T07:19:47.757Z,2.40
2023-05-06T07:22:19.619Z,3.58
2023-05-06T07:24:53.350Z,2.92
2023-05-06T07:27:27.553Z,5.28
2023-05-06T07:29:59.914Z,3.83
2023-05-06T07:32:33.120Z,2.33
2023-05-06T07:35:18.204Z,1.40
2023-05-06T07:37:49.112Z,2.35
2023-05-06T07:40:19.381Z,2.22
2023-05-06T07:42:51.792Z,2.25
2023-05-06T07:45:23.620Z,2.78
2023-05-06T07:47:56.702Z,3.90
2023-05-06T07:50:27.151Z,2.53
2023-05-06T07:52:57.595Z,1.95
2023-05-06T07:55:28.123Z,1.95
2023-05-06T07:57:58.422Z,2.92
2023-05-06T08:00:28.543Z,1.75
2023-05-06T08:03:01.425Z,1.65
2023-05-06T08:05:31.867Z,1.95
2023-05-06T08:08:02.009Z,2.83
2023-05-06T08:10:32.522Z,2.88
2023-05-06T08:13:11.848Z,2.17
2023-05-06T08:15:43.287Z,2.17
2023-05-06T08:18:22.324Z,1.40
2023-05-06T08:20:53.249Z,1.73
2023-05-06T08:23:26.406Z,1.70
2023-05-06T08:25:56.665Z,2.55
2023-05-06T08:28:26.738Z,1.70
2023-05-06T08:30:56.755Z,4.07
2023-05-06T08:33:32.904Z,1.80
2023-05-06T08:36:02.953Z,2.03
2023-05-06T08:38:32.991Z,2.45
2023-05-06T08:41:10.864Z,2.13
2023-05-06T08:44:01.484Z,2.45
2023-05-06T08:46:35.045Z,1.90
2023-05-06T08:49:09.865Z,1.98
2023-05-06T08:51:41.346Z,1.70
2023-05-06T08:54:13.136Z,2.17
2023-05-06T08:56:53.393Z,2.75
2023-05-06T08:59:31.119Z,2.10
2023-05-06T09:02:02.648Z,3.38
2023-05-06T09:04:35.350Z,2.78
2023-05-06T09:07:05.544Z,2.00
2023-05-06T09:09:35.616Z,2.88
2023-05-06T09:12:07.247Z,2.25
2023-05-06T09:14:37.317Z,4.10
2023-05-06T09:17:08.374Z,2.05
2023-05-06T09:19:49.439Z,3.22
2023-05-06T09:22:27.160Z,2.15
2023-05-06T09:24:59.349Z,2.97
2023-05-06T09:27:31.747Z,3.58
2023-05-06T09:30:06.866Z,2.80
2023-05-06T09:32:40.484Z,2.83
2023-05-06T09:35:14.527Z,2.28
2023-05-06T09:37:45.075Z,2.95
2023-05-06T09:40:17.013Z,2.85
2023-05-06T09:42:50.658Z,2.22
2023-05-06T09:45:20.691Z,2.33
2023-05-06T09:47:53.975Z,3.72
2023-05-06T09:50:27.986Z,4.23
2023-05-06T09:52:59.925Z,2.38
2023-05-06T09:55:30.946Z,2.30
2023-05-06T09:58:02.401Z,3.42
2023-05-06T10:00:34.303Z,4.07
2023-05-06T10:03:08.874Z,2.67
2023-05-06T10:05:43.846Z,1.60
2023-05-06T10:08:18.762Z,1.70
2023-05-06T10:10:52.337Z,2.22
2023-05-06T10:13:24.828Z,3.85
2023-05-06T10:15:55.779Z,3.10
2023-05-06T10:18:29.431Z,3.13
2023-05-06T10:21:03.524Z,3.72
2023-05-06T10:23:40.513Z,4.00
2023-05-06T10:26:14.600Z,4.55
2023-05-06T10:31:17.161Z,1.75
2023-05-06T10:33:51.684Z,3.10
2023-05-06T10:36:28.823Z,2.60
2023-05-06T10:39:00.949Z,3.42
2023-05-06T10:41:32.033Z,3.03
2023-05-06T10:44:02.102Z,2.28
2023-05-06T10:46:58.930Z,2.60
2023-05-06T10:49:29.500Z,3.42
2023-05-06T10:52:18.162Z,1.60
2023-05-06T10:54:53.228Z,1.40
2023-05-06T10:57:27.216Z,1.60
2023-05-06T10:59:59.932Z,1.10
2023-05-06T11:02:33.498Z,1.80
2023-05-06T11:05:04.962Z,4.13
2023-05-06T11:07:39.695Z,2.53
2023-05-06T11:10:13.809Z,2.42
2023-05-06T11:12:51.722Z,2.03
2023-05-06T11:15:26.935Z,4.00
2023-05-06T11:17:58.425Z,1.98
2023-05-06T11:20:30.908Z,2.45
2023-05-06T11:23:04.613Z,3.83
2023-05-06T11:25:51.784Z,3.50
2023-05-06T11:28:21.831Z,3.50
2023-05-06T11:30:58.523Z,2.67
2023-05-06T11:33:34.623Z,2.38
2023-05-06T11:36:06.989Z,2.55
2023-05-06T11:38:49.835Z,2.45
2023-05-06T11:41:23.618Z,3.35
2023-05-06T11:43:55.346Z,3.65
2023-05-06T11:46:36.008Z,3.08
2023-05-06T11:49:08.813Z,3.00
2023-05-06T11:51:39.219Z,3.03
2023-05-06T11:54:20.507Z,2.88
2023-05-06T11:56:52.853Z,4.35
2023-05-06T11:59:31.138Z,4.30
2023-05-06T12:02:10.878Z,2.63
2023-05-06T12:04:44.652Z,2.95
2023-05-06T12:07:17.601Z,2.30
2023-05-06T12:09:52.484Z,2.10
2023-05-06T12:12:27.630Z,3.95
2023-05-06T12:14:57.912Z,4.97
2023-05-06T12:17:28.134Z,3.90
2023-05-06T12:19:58.986Z,4.80
2023-05-06T12:22:31.553Z,2.40
2023-05-06T12:25:31.133Z,1.73
2023-05-06T12:28:04.353Z,2.53
2023-05-06T12:30:34.883Z,3.35
2023-05-06T12:33:15.590Z,3.03
2023-05-06T12:35:45.669Z,3.20
2023-05-06T12:38:17.194Z,2.47
2023-05-06T12:40:57.134Z,1.80
2023-05-06T12:43:32.622Z,2.10
2023-05-06T12:46:10.089Z,3.28
2023-05-06T12:48:42.625Z,2.00
2023-05-06T12:51:22.296Z,2.53
2023-05-06T12:53:52.489Z,2.10
2023-05-06T12:56:34.652Z,1.75
2023-05-06T12:59:09.724Z,3.25
2023-05-06T13:01:42.403Z,2.80
2023-05-06T13:04:15.471Z,2.55
2023-05-06T13:06:47.176Z,1.83
2023-05-06T13:09:21.463Z,1.25
2023-05-06T13:11:57.968Z,1.20
2023-05-06T13:14:46.361Z,1.60
2023-05-06T13:17:16.738Z,1.40
2023-05-06T13:19:47.203Z,2.45
2023-05-06T13:22:17.296Z,1.27
2023-05-06T13:24:47.359Z,1.48
2023-05-06T13:27:22.042Z,2.00
2023-05-06T13:29:54.108Z,1.38
2023-05-06T13:32:24.273Z,1.35
2023-05-06T13:34:56.556Z,1.42
2023-05-06T13:37:27.395Z,1.77
2023-05-06T13:39:57.857Z,1.33
2023-05-06T13:42:30.582Z,1.05
2023-05-06T13:45:01.134Z,1.30
2023-05-06T13:47:31.448Z,0.80
2023-05-06T13:50:03.823Z,1.75
2023-05-06T13:52:33.881Z,1.05
2023-05-06T13:55:04.193Z,1.08
2023-05-06T13:57:36.818Z,0.82
2023-05-06T14:00:11.087Z,0.65
2023-05-06T14:02:43.430Z,1.33
2023-05-06T14:05:15.886Z,0.88
2023-05-06T14:07:46.039Z,1.10
2023-05-06T14:10:17.072Z,0.95
2023-05-06T14:12:50.061Z,1.40
2023-05-06T14:15:21.292Z,1.67
2023-05-06T14:17:51.378Z,0.90
2023-05-06T14:20:23.278Z,0.77
2023-05-06T14:22:53.360Z,0.98
2023-05-06T14:25:27.030Z,0.77
2023-05-06T14:28:00.293Z,1.30
2023-05-06T14:30:31.109Z,0.70
2023-05-06T14:33:01.332Z,0.52
2023-05-06T14:35:32.187Z,0.80
2023-05-06T14:38:02.259Z,0.52
2023-05-06T14:40:36.140Z,0.70
2023-05-06T14:45:42.372Z,0.50
2023-05-06T14:48:16.210Z,0.32
2023-05-06T14:50:48.293Z,0.32
2023-05-06T14:53:20.633Z,0.45
2023-05-06T14:55:53.099Z,0.70
2023-05-06T14:58:28.337Z,0.70
2023-05-06T15:00:58.343Z,0.52
2023-05-06T15:03:29.191Z,1.00
2023-05-06T15:06:09.933Z,0.60
2023-05-06T15:08:40.132Z,1.10
2023-05-06T15:11:12.598Z,1.17
2023-05-06T15:13:48.836Z,1.05
2023-05-06T15:16:18.801Z,0.98
2023-05-06T15:18:49.219Z,0.75
2023-05-06T15:21:22.207Z,0.98
2023-05-06T15:23:52.658Z,1.08
2023-05-06T15:26:24.271Z,0.77
2023-05-06T15:28:57.218Z,0.85
2023-05-06T15:31:27.534Z,1.10
2023-05-06T15:33:59.585Z,0.65
2023-05-06T15:36:31.306Z,0.70
2023-05-06T15:39:02.829Z,0.60
2023-05-06T15:41:35.109Z,0.63
2023-05-06T15:44:11.414Z,0.73
2023-05-06T15:46:42.222Z,0.80
2023-05-06T15:52:01.304Z,0.85
2023-05-06T15:54:32.185Z,0.80
2023-05-06T15:57:07.095Z,1.30
2023-05-06T15:59:46.301Z,0.70
2023-05-06T16:04:51.711Z,0.65
2023-05-06T16:07:22.191Z,1.08
2023-05-06T16:09:52.941Z,0.75
2023-05-06T16:12:23.139Z,0.90
2023-05-06T16:15:00.598Z,0.95
2023-05-06T16:17:30.783Z,0.80
2023-05-06T16:20:00.978Z,0.90
2023-05-06T16:22:30.976Z,1.20
2023-05-06T16:25:01.045Z,0.80
2023-05-06T16:27:31.239Z,0.90
2023-05-06T16:30:04.006Z,0.77
2023-05-06T16:32:35.369Z,1.00
2023-05-06T16:35:14.456Z,0.68
2023-05-06T16:37:46.511Z,1.30
2023-05-06T16:40:26.467Z,0.82
2023-05-06T16:42:56.635Z,0.60
2023-05-06T16:45:31.035Z,0.70
2023-05-06T16:48:01.313Z,0.70
2023-05-06T16:50:32.327Z,0.80
2023-05-06T16:53:02.445Z,0.80
2023-05-06T16:55:32.627Z,1.27
2023-05-06T16:58:03.874Z,2.17
2023-05-06T17:00:36.532Z,2.25
2023-05-06T17:03:07.329Z,2.10
2023-05-06T17:05:37.455Z,2.47
2023-05-06T17:08:12.063Z,2.97
2023-05-06T17:10:43.575Z,2.78
2023-05-06T17:13:28.190Z,3.20
2023-05-06T17:16:01.063Z,4.28
2023-05-06T17:18:53.846Z,3.70
2023-05-06T17:24:08.120Z,5.15
2023-05-06T17:26:41.923Z,3.97
2023-05-06T17:29:15.368Z,5.50
2023-05-06T17:31:48.100Z,3.55
2023-05-06T17:34:18.560Z,4.70
2023-05-06T17:36:48.567Z,3.90
2023-05-06T17:39:20.656Z,4.10
2023-05-06T17:41:50.806Z,5.35
2023-05-06T17:44:20.773Z,5.22
2023-05-06T17:46:56.382Z,4.55
2023-05-06T17:49:27.333Z,5.03
2023-05-06T17:51:59.455Z,4.35
2023-05-06T17:54:32.626Z,4.53
2023-05-06T17:57:03.520Z,5.88
2023-05-06T17:59:33.580Z,4.88
2023-05-06T18:02:14.156Z,5.13
2023-05-06T18:04:48.226Z,6.10
2023-05-06T18:09:52.124Z,5.47
2023-05-06T18:12:22.772Z,4.50
2023-05-06T18:14:53.452Z,4.80
2023-05-06T18:17:26.343Z,5.15
2023-05-06T18:19:56.442Z,5.10
2023-05-06T18:22:26.872Z,5.43
2023-05-06T18:24:56.919Z,5.00
2023-05-06T18:27:29.798Z,5.70
2023-05-06T18:30:00.036Z,5.45
2023-05-06T18:32:32.863Z,4.47
2023-05-06T18:35:05.591Z,4.28
2023-05-06T18:37:45.785Z,4.30
2023-05-06T18:40:17.998Z,4.18
2023-05-06T18:42:51.462Z,4.30
2023-05-06T18:45:24.619Z,3.05
2023-05-06T18:47:59.079Z,3.90
2023-05-06T18:50:31.483Z,4.13
2023-05-06T18:53:01.505Z,3.75
2023-05-06T18:55:40.240Z,3.40
2023-05-06T18:58:12.629Z,3.47
2023-05-06T19:00:42.663Z,3.10
2023-05-06T19:03:27.672Z,3.58
2023-05-06T19:05:57.826Z,3.88
2023-05-06T19:08:29.804Z,2.80
2023-05-06T19:11:02.292Z,6.57
2023-05-06T19:13:32.460Z,6.47
2023-05-06T19:16:02.512Z,4.43
2023-05-06T19:18:38.048Z,5.15
2023-05-06T19:21:12.119Z,5.03
2023-05-06T19:23:42.336Z,5.75
2023-05-06T19:26:15.374Z,6.00
2023-05-06T19:28:45.883Z,4.28
2023-05-06T19:31:16.544Z,4.07
2023-05-06T19:33:49.301Z,6.68
2023-05-06T19:36:19.512Z,5.82
2023-05-06T19:38:50.651Z,4.53
2023-05-06T19:41:21.441Z,5.28
2023-05-06T19:43:55.430Z,4.20
2023-05-06T19:46:27.006Z,3.08
2023-05-06T19:49:01.043Z,5.72
2023-05-06T19:51:31.450Z,4.60
2023-05-06T19:54:01.552Z,6.10
2023-05-06T19:56:34.479Z,5.82
2023-05-06T19:59:04.460Z,6.03
2023-05-06T20:01:34.451Z,6.57
2023-05-06T20:04:07.563Z,6.28
2023-05-06T20:06:37.686Z,5.68
2023-05-06T20:09:10.478Z,4.60
2023-05-06T20:11:40.577Z,5.07
2023-05-06T20:14:13.791Z,3.63
2023-05-06T20:16:44.601Z,3.85
2023-05-06T20:19:17.754Z,4.25
2023-05-06T20:21:48.033Z,6.28
2023-05-06T20:24:18.413Z,5.38
2023-05-06T20:26:50.908Z,7.13
2023-05-06T20:29:21.578Z,9.88
2023-05-06T20:31:54.372Z,8.40
2023-05-06T20:34:27.476Z,7.13
2023-05-06T20:36:57.496Z,5.60
2023-05-06T20:39:30.000Z,4.30
2023-05-06T20:42:00.183Z,7.03
2023-05-06T20:44:31.094Z,10.27
2023-05-06T20:47:02.268Z,6.15
2023-05-06T20:49:42.443Z,7.07
2023-05-06T20:52:14.827Z,5.32
2023-05-06T20:54:47.285Z,6.15
2023-05-06T20:57:19.238Z,5.45
2023-05-06T20:59:49.732Z,5.30
2023-05-06T21:02:22.747Z,6.47
2023-05-06T21:04:57.507Z,7.03
2023-05-06T21:07:31.076Z,6.00
2023-05-06T21:10:01.457Z,5.38
2023-05-06T21:12:31.613Z,4.65
2023-05-06T21:15:03.773Z,4.25
2023-05-06T21:17:40.068Z,5.35
2023-05-06T21:20:16.989Z,5.68
2023-05-06T21:22:48.708Z,4.50
2023-05-06T21:25:29.174Z,5.88
2023-05-06T21:28:03.469Z,4.47
2023-05-06T21:30:33.641Z,4.13
2023-05-06T21:33:05.209Z,5.28
2023-05-06T21:35:55.993Z,3.13
2023-05-06T21:38:28.056Z,3.60
2023-05-06T21:40:58.124Z,4.80
2023-05-06T21:43:28.188Z,7.88
2023-05-06T21:45:58.558Z,5.70
2023-05-06T21:48:35.361Z,5.97
2023-05-06T21:51:18.858Z,4.05
2023-05-06T21:53:53.833Z,5.13
2023-05-06T21:56:24.489Z,4.57
2023-05-06T21:58:59.474Z,5.00
2023-05-06T22:01:29.735Z,6.03
2023-05-06T22:04:00.619Z,5.10
2023-05-06T22:06:33.727Z,4.45
2023-05-06T22:09:04.602Z,6.68
2023-05-06T22:11:39.006Z,4.95
2023-05-06T22:16:41.713Z,4.75
2023-05-06T22:19:12.481Z,4.22
2023-05-06T22:21:46.495Z,7.63
2023-05-06T22:24:17.924Z,5.07
2023-05-06T22:26:48.231Z,3.90
2023-05-06T22:29:20.563Z,3.40
2023-05-06T22:31:51.373Z,3.25
2023-05-06T22:34:22.594Z,3.47
2023-05-06T22:36:56.993Z,4.43
2023-05-06T22:39:30.581Z,4.57
2023-05-06T22:42:00.702Z,5.07
2023-05-06T22:44:30.926Z,3.95
2023-05-06T22:47:00.974Z,4.68
2023-05-06T22:49:31.077Z,4.70
2023-05-06T22:52:03.787Z,4.30
2023-05-06T22:54:33.862Z,3.78
2023-05-06T22:57:03.991Z,5.05
2023-05-06T22:59:34.617Z,3.65
2023-05-06T23:02:05.958Z,4.10
2023-05-06T23:04:36.082Z,3.83
2023-05-06T23:07:09.503Z,5.43
2023-05-06T23:09:39.647Z,4.17
2023-05-06T23:12:10.162Z,5.38
2023-05-06T23:14:40.347Z,4.25
2023-05-06T23:17:12.905Z,6.47
2023-05-06T23:19:44.120Z,4.55
2023-05-06T23:22:17.199Z,4.72
2023-05-06T23:24:47.725Z,4.32
2023-05-06T23:27:18.731Z,4.82
2023-05-06T23:29:52.632Z,5.80
2023-05-06T23:32:22.594Z,6.45
2023-05-06T23:34:54.740Z,5.13
2023-05-06T23:37:27.812Z,5.75
2023-05-06T23:40:02.134Z,4.70
2023-05-06T23:42:33.599Z,3.90
2023-05-06T23:45:03.516Z,5.57
2023-05-06T23:47:35.014Z,6.05
2023-05-06T23:50:05.124Z,4.82
2023-05-06T23:52:41.282Z,6.68
2023-05-06T23:55:12.588Z,5.63
2023-05-06T23:57:42.841Z,6.53
